Monamie — WDA5193 — position and weather

sailwx.info

Track history (hours):
 
Tides and Currents Weather Stations Pressure Air Temp Water Temp Dewpoint Dewpoint Depression Visibility Wind Speed Wind Dir Waves Ship Positions

Monamie

Owner: REED, DAVID E, Kingston, MA. More information available from US FCC via Universal Licensing System and Coast Guard Vessel Documentation Center.

Last reported at 2017-Oct-16 22:16 UTC. Time now 2017-Oct-18 06:05 UTC.
Position N 34°10' W 119°14'.

Length 12 m.

Type: Sailing vessel. MMSI: 366817510.

Date/timePositionNaut miles runAvg speedWind from/ knotsBaromVisibWave heightAir tempDewpointWater temp
2017-Oct-16 22:16N 34°10' W 119°14'0 0.0
2017-Oct-15 15:49N 34°10' W 119°14'0 0.0
2017-Oct-15 13:58N 34°10' W 119°14'0 0.0
2017-Oct-15 13:25N 34°10' W 119°14'0 0.0
2017-Oct-14 02:22N 34°10' W 119°14'0 0.0
2017-Oct-14 01:58N 34°10' W 119°14'0 0.0
2017-Oct-13 22:43N 34°10' W 119°14'0 0.0
2017-Oct-13 22:19N 34°10' W 119°14'0 0.0
2017-Oct-13 21:43N 34°10' W 119°14'0 0.0
2017-Oct-13 00:05N 34°10' W 119°14'0 0.0
2017-Oct-12 23:35N 34°10' W 119°14'0 0.0
2017-Oct-12 23:23N 34°10' W 119°14'0 0.0
2017-Oct-12 22:59N 34°10' W 119°14'5 4.2
2017-Oct-12 21:43N 34°06' W 119°10'2 5.8
2017-Oct-12 21:21N 34°04' W 119°09'2 6.7
2017-Oct-12 21:00N 34°02' W 119°08'  
2017-Oct-08 16:59N 33°50' W 118°57'3 6.0
2017-Oct-08 16:28N 33°53' W 118°59'3 6.5
2017-Oct-08 15:58N 33°55' W 119°01'3 6.4
2017-Oct-08 15:30N 33°58' W 119°04'4 6.2
2017-Oct-08 14:55N 34°01' W 119°06'3 6.3
2017-Oct-08 14:30N 34°03' W 119°08'4 6.9
2017-Oct-08 13:58N 34°06' W 119°11'3 6.5
2017-Oct-08 13:30N 34°08' W 119°13'  
Track history (hours):
 
Tides and Currents Weather Stations Pressure Air Temp Water Temp Dewpoint Dewpoint Depression Visibility Wind Speed Wind Dir Waves Ship Positions

Monamie

Owner: REED, DAVID E, Kingston, MA. More information available from US FCC via Universal Licensing System and Coast Guard Vessel Documentation Center.

Last reported at 2017-Oct-16 22:16 UTC. Time now 2017-Oct-18 06:05 UTC.
Position N 34°10' W 119°14'.

Length 12 m.

Type: Sailing vessel. MMSI: 366817510.

Date/timePositionNaut miles runAvg speedWind from/ knotsBaromVisibWave heightAir tempDewpointWater temp
2017-Oct-16 22:16N 34°10' W 119°14'0 0.0
2017-Oct-15 15:49N 34°10' W 119°14'0 0.0
2017-Oct-15 13:58N 34°10' W 119°14'0 0.0
2017-Oct-15 13:25N 34°10' W 119°14'0 0.0
2017-Oct-14 02:22N 34°10' W 119°14'0 0.0
2017-Oct-14 01:58N 34°10' W 119°14'0 0.0
2017-Oct-13 22:43N 34°10' W 119°14'0 0.0
2017-Oct-13 22:19N 34°10' W 119°14'0 0.0
2017-Oct-13 21:43N 34°10' W 119°14'0 0.0
2017-Oct-13 00:05N 34°10' W 119°14'0 0.0
2017-Oct-12 23:35N 34°10' W 119°14'0 0.0
2017-Oct-12 23:23N 34°10' W 119°14'0 0.0
2017-Oct-12 22:59N 34°10' W 119°14'5 4.2
2017-Oct-12 21:43N 34°06' W 119°10'2 5.8
2017-Oct-12 21:21N 34°04' W 119°09'2 6.7
2017-Oct-12 21:00N 34°02' W 119°08'  
2017-Oct-08 16:59N 33°50' W 118°57'3 6.0
2017-Oct-08 16:28N 33°53' W 118°59'3 6.5
2017-Oct-08 15:58N 33°55' W 119°01'3 6.4
2017-Oct-08 15:30N 33°58' W 119°04'4 6.2
2017-Oct-08 14:55N 34°01' W 119°06'3 6.3
2017-Oct-08 14:30N 34°03' W 119°08'4 6.9
2017-Oct-08 13:58N 34°06' W 119°11'3 6.5
2017-Oct-08 13:30N 34°08' W 119°13'  

Dump ship's entire track history